Data for 09/08/2009

Time Sea-Level Adjusted Pressure Absolute Pressure Temperature Relative Humidity Dew Point   
(mb) (inHg) (mb) (inHg) (C) (F) (%) (C) (F)
00:05 1017 30.03 847 25.01 11.2 52.1 44 -0.5 31
00:10 1017 30.03 847 25.01 11.1 52 44 -0.6 30.9
00:15 1017 30.03 847 25.01 11 51.9 44 -0.6 31
00:20 1017 30.03 847 25.01 11.1 51.9 44 -0.6 31
00:25 1018 30.06 847 25.01 11.1 52 45 -0.4 31.3
00:30 1018 30.06 847 25.01 10.9 51.7 45 -0.4 31.3
00:35 1018 30.06 847 25.01 10.9 51.7 45 -0.5 31
00:40 1018 30.06 847 25.01 10.8 51.5 45 -0.5 31
00:45 1018 30.06 847 25.01 10.8 51.5 45 -0.4 31.2
00:50 1018 30.06 847 25.01 10.9 51.6 46 -0.2 31.6
00:55 1018 30.06 847 25.01 10.9 51.6 46 -0.3 31.5
01:00 1018 30.06 847 25.01 10.7 51.2 47 -0.2 31.6
01:05 1018 30.06 847 25.01 10.6 51 48 -0.1 31.9
01:10 1018 30.06 847 25.01 10.5 50.8 48 -0.1 31.8
01:15 1018 30.06 847 25.01 10.4 50.6 48 0 32
01:20 1018 30.06 847 25.01 10.3 50.6 48 -0.1 31.9
01:25 1018 30.06 847 25.01 10.3 50.5 49 0.1 32.1
01:30 1018 30.06 847 25.01 10.1 50.2 50 0.2 32.4
01:35 1018 30.06 847 25.01 10 49.9 50 0.2 32.3
01:40 1018 30.06 847 25.01 10 49.9 51 0.3 32.5
01:45 1018 30.06 847 25.01 10 50 51 0.3 32.5
01:50 1018 30.06 847 25.01 10.2 50.3 50 0.4 32.7
01:55 1018 30.06 848 25.04 10.2 50.4 51 0.4 32.8
02:00 1018 30.06 848 25.04 10.2 50.3 51 0.5 32.9
02:05 1018 30.06 848 25.04 10.1 50.2 51 0.5 32.8
02:10 1018 30.06 848 25.04 10.1 50.1 51 0.4 32.6
02:15 1018 30.06 848 25.04 10.1 50.2 51 0.4 32.7
02:20 1018 30.06 848 25.04 10.2 50.4 51 0.6 33
02:25 1018 30.06 848 25.04 10.3 50.5 51 0.6 33.1
02:30 1018 30.06 848 25.04 10.2 50.3 52 0.7 33.3
02:35 1019 30.09 848 25.04 10.1 50.3 52 0.8 33.5
02:40 1019 30.09 848 25.04 10 49.9 53 0.9 33.6
02:45 1019 30.09 848 25.04 9.9 49.8 54 1 33.9
02:50 1019 30.09 848 25.04 9.7 49.5 55 1 33.9
02:55 1019 30.09 848 25.04 9.6 49.3 54 0.8 33.5
03:00 1019 30.09 848 25.04 9.7 49.4 54 0.9 33.6
03:05 1019 30.09 848 25.04 9.6 49.2 55 0.9 33.6
03:10 1019 30.09 848 25.04 9.5 49.1 55 1 33.8
03:15 1019 30.09 848 25.04 9.5 49.1 55 0.9 33.6
03:20 1019 30.09 848 25.04 9.5 49.1 55 0.9 33.7
03:25 1019 30.09 848 25.04 9.5 49.1 54 0.7 33.3
03:30 1019 30.09 848 25.04 9.6 49.2 54 0.7 33.3
03:35 1019 30.09 848 25.04 9.6 49.3 54 0.7 33.3
03:40 1019 30.09 848 25.04 9.6 49.3 54 0.8 33.4
03:45 1019 30.09 848 25.04 9.5 49.2 56 1.2 34.1
03:50 1019 30.09 848 25.04 9.3 48.8 55 0.8 33.5
03:55 1019 30.09 848 25.04 9.3 48.8 55 0.8 33.5
04:00 1019 30.09 848 25.04 9.3 48.8 56 1 33.7
04:05 1019 30.09 848 25.04 9.3 48.7 55 0.9 33.5
04:10 1019 30.09 848 25.04 9.1 48.5 56 1 33.7
04:15 1019 30.09 848 25.04 9.2 48.5 56 1 33.7
04:20 1019 30.09 848 25.04 9.2 48.5 57 1.3 34.3
04:25 1019 30.09 848 25.04 8.8 47.9 59 1.4 34.4
04:30 1019 30.09 848 25.04 8.3 47 60 1 33.8
04:35 1019 30.09 848 25.04 8.2 46.8 59 0.8 33.5
04:40 1019 30.09 848 25.04 8.4 47.1 58 0.6 33
04:45 1019 30.09 848 25.04 8.7 47.6 57 0.7 33.3
04:50 1019 30.09 849 25.07 8.8 47.8 58 1 33.8
04:55 1019 30.09 848 25.04 8.7 47.7 57 0.8 33.4
05:00 1019 30.09 848 25.04 8.7 47.6 57 0.7 33.3
05:05 1019 30.09 849 25.07 8.7 47.6 58 1 33.8
05:10 1019 30.09 849 25.07 8.6 47.5 60 1.2 34.2
05:15 1019 30.09 849 25.07 8.5 47.3 58 0.6 33.1
05:20 1019 30.09 849 25.07 8.3 46.9 60 0.9 33.6
05:25 1019 30.09 849 25.07 8.1 46.6 60 0.9 33.6
05:30 1019 30.09 849 25.07 7.9 46.2 60 0.7 33.3
05:35 1019 30.09 849 25.07 7.7 45.9 63 1 33.9
05:40 1019 30.09 849 25.07 7.5 45.4 62 0.6 33
05:45 1019 30.09 849 25.07 7.5 45.5 62 0.7 33.2
05:50 1019 30.09 849 25.07 7.4 45.3 64 0.9 33.7
05:55 1020 30.12 849 25.07 6.9 44.5 65 0.8 33.4
06:00 1020 30.12 849 25.07 6.5 43.7 65 0.4 32.8
06:05 1020 30.12 849 25.07 6.4 43.6 65 0.3 32.6
06:10 1020 30.12 849 25.07 6.4 43.6 66 0.6 33.1
06:15 1020 30.12 849 25.07 6.3 43.3 68 0.8 33.5
06:20 1020 30.12 849 25.07 6.3 43.3 66 0.3 32.6
06:25 1020 30.12 849 25.07 6.3 43.4 66 0.5 32.8
06:30 1020 30.12 849 25.07 6.3 43.3 69 1 33.7
06:35 1020 30.12 849 25.07 6 42.8 70 0.9 33.6
06:40 1020 30.12 849 25.07 5.8 42.5 69 0.6 33.1
06:45 1020 30.12 849 25.07 5.7 42.3 68 0.3 32.6
06:50 1020 30.12 849 25.07 5.8 42.4 68 0.4 32.7
06:55 1020 30.12 849 25.07 5.7 42.2 69 0.4 32.7
07:00 1020 30.12 849 25.07 5.7 42.3 68 0.3 32.5
07:05 1020 30.12 849 25.07 5.7 42.3 69 0.4 32.8
07:10 1020 30.12 849 25.07 5.7 42.3 67 0.2 32.3
07:15 1020 30.12 849 25.07 5.8 42.5 67 0.2 32.3
07:20 1020 30.12 849 25.07 5.8 42.5 67 0.1 32.3
07:25 1020 30.12 850 25.1 5.9 42.6 66 -0 32
07:30 1021 30.15 850 25.1 5.9 42.6 66 0.1 32.1
07:35 1021 30.15 850 25.1 5.9 42.5 66 0.1 32.1
07:40 1021 30.15 850 25.1 5.9 42.6 67 0.2 32.3
07:45 1021 30.15 850 25.1 6 42.8 66 0.2 32.4
07:50 1021 30.15 850 25.1 6.6 43.9 62 -0.1 31.7
07:55 1021 30.15 850 25.1 7.8 46 59 0.2 32.3
08:00 1021 30.15 850 25.1 8.5 47.3 57 0.6 33.1
08:05 1021 30.15 850 25.1 8.8 47.9 56 0.6 33.1
08:10 1021 30.15 850 25.1 9 48.2 56 0.7 33.3
08:15 1021 30.15 850 25.1 9.1 48.4 56 0.7 33.3
08:20 1021 30.15 850 25.1 9.2 48.6 55 0.8 33.4
08:25 1021 30.15 850 25.1 9.6 49.2 54 0.6 33.2
08:30 1021 30.15 850 25.1 10 49.9 53 0.7 33.3
08:35 1021 30.15 850 25.1 10.2 50.3 52 0.8 33.5
08:40 1021 30.15 850 25.1 10.5 50.8 51 0.9 33.6
08:45 1021 30.15 851 25.13 10.6 51 51 0.9 33.6
08:50 1021 30.15 851 25.13 10.5 50.8 52 1 33.8
08:55 1021 30.15 851 25.13 10.2 50.4 53 1.1 34
09:00 1021 30.15 851 25.13 10.5 50.8 53 1.3 34.3
09:05 1021 30.15 851 25.13 10.1 50.2 53 1 33.7
09:10 1021 30.15 851 25.13 10.6 51 49 0.5 32.8
09:15 1022 30.18 851 25.13 10.6 51.1 50 0.5 33
09:20 1022 30.18 851 25.13 11.1 52.1 47 0.3 32.6
09:25 1022 30.18 851 25.13 11 51.8 49 0.7 33.2
09:30 1022 30.18 851 25.13 11.7 53 45 0.3 32.6
09:35 1022 30.18 851 25.13 12.5 54.5 43 0.2 32.4
09:40 1022 30.18 851 25.13 13 55.5 41 0.1 32.2
09:45 1022 30.18 851 25.13 12.6 54.7 42 -0 32
09:50 1022 30.18 851 25.13 12.7 54.8 41 -0.2 31.6
09:55 1022 30.18 851 25.13 12.8 55 43 0.6 33.1
10:00 1022 30.18 851 25.13 12.3 54.1 41 -0.5 31.1
10:05 1022 30.18 851 25.13 13 55.5 41 0.1 32.1
10:10 1022 30.18 851 25.13 12.6 54.7 43 0.5 32.9
10:15 1022 30.18 851 25.13 12.3 54.2 41 -0.6 30.9
10:20 1022 30.18 851 25.13 12.6 54.6 40 -0.6 30.9
10:25 1022 30.18 851 25.13 13.2 55.8 37 -0.9 30.4
10:30 1022 30.18 851 25.13 13.1 55.5 38 -0.7 30.7
10:35 1022 30.18 851 25.13 13.7 56.6 36 -1 30.1
10:40 1022 30.18 851 25.13 13.7 56.6 36 -0.9 30.3
10:45 1022 30.18 851 25.13 13.9 56.9 36 -0.9 30.3
10:50 1022 30.18 851 25.13 14.1 57.4 35 -1 30.2
10:55 1022 30.18 851 25.13 13.9 57.1 36 -0.8 30.5
11:00 1022 30.18 851 25.13 14.1 57.4 34 -1.6 29.1
11:05 1022 30.18 851 25.13 13.5 56.3 35 -1.5 29.3
11:10 1021 30.15 851 25.13 14.1 57.4 35 -1.2 29.8
11:15 1021 30.15 851 25.13 14.3 57.8 34 -1.4 29.5
11:20 1021 30.15 851 25.13 14.9 58.8 33 -1.2 29.9
11:25 1021 30.15 851 25.13 15.3 59.5 32 -1.3 29.7
11:30 1021 30.15 851 25.13 14.5 58 33 -1.5 29.3
11:35 1021 30.15 851 25.13 15 59 32 -1.5 29.3
11:40 1021 30.15 851 25.13 15.8 60.4 31 -1.3 29.7
11:45 1021 30.15 851 25.13 16.1 61 31 -0.9 30.4
11:50 1021 30.15 851 25.13 15.3 59.5 32 -1.4 29.4
11:55 1021 30.15 851 25.13 15.1 59.2 32 -1.3 29.6
12:00 1021 30.15 851 25.13 15.5 59.9 31 -1.3 29.7
12:05 1021 30.15 850 25.1 15.3 59.5 31 -1.7 29
12:10 1021 30.15 850 25.1 15.7 60.3 29 -2 28.4
12:15 1021 30.15 850 25.1 15.9 60.6 30 -1.8 28.8
12:20 1021 30.15 850 25.1 15.7 60.2 31 -1.5 29.4
12:25 1021 30.15 850 25.1 16.1 61 30 -1.5 29.4
12:30 1021 30.15 850 25.1 16 60.7 30 -1.7 28.9
12:35 1021 30.15 850 25.1 16 60.8 29 -1.9 28.6
12:40 1021 30.15 850 25.1 16 60.7 29 -2 28.3
12:45 1021 30.15 850 25.1 16.4 61.5 28 -2.2 28
12:50 1021 30.15 850 25.1 16.5 61.6 27 -2.4 27.7
12:55 1021 30.15 850 25.1 16.7 62 26 -2.9 26.9
13:00 1021 30.15 850 25.1 16.7 62 27 -2.2 28.1
13:05 1021 30.15 850 25.1 17 62.5 25 -2.8 26.9
13:10 1021 30.15 850 25.1 17.2 62.9 25 -2.9 26.8
13:15 1021 30.15 850 25.1 17.5 63.4 23 -3.7 25.3
13:20 1020 30.12 850 25.1 17.3 63.1 24 -3.5 25.8
13:25 1020 30.12 850 25.1 18 64.3 22 -3.7 25.3
13:30 1020 30.12 849 25.07 18.5 65.3 21 -4.3 24.2
13:35 1020 30.12 849 25.07 17.7 63.8 22 -4 24.9
13:40 1020 30.12 849 25.07 18.1 64.6 23 -3.4 25.9
13:45 1020 30.12 849 25.07 17.1 62.7 24 -3.5 25.7
13:50 1020 30.12 849 25.07 18.2 64.8 22 -4 24.8
13:55 1020 30.12 849 25.07 17.9 64.1 22 -4.2 24.4
14:00 1020 30.12 849 25.07 17.6 63.6 21 -5 23
14:05 1020 30.12 849 25.07 18.1 64.5 20 -5.1 22.9
14:10 1020 30.12 849 25.07 18.5 65.4 19 -5.6 22
14:15 1020 30.12 849 25.07 18.8 65.8 18 -5.9 21.3
14:20 1020 30.12 849 25.07 18.9 65.9 19 -5 23
14:25 1020 30.12 849 25.07 18.7 65.7 18 -6.1 21
14:30 1020 30.12 849 25.07 18.5 65.3 18 -5.9 21.3
14:35 1020 30.12 849 25.07 19.2 66.5 18 -5.8 21.6
14:40 1020 30.12 849 25.07 19.5 67.1 17 -6.1 20.9
14:45 1020 30.12 849 25.07 19.8 67.7 17 -6.1 21
14:50 1020 30.12 849 25.07 19.6 67.2 17 -6.1 21.1
14:55 1020 30.12 849 25.07 18.7 65.6 18 -5.8 21.6
15:00 1020 30.12 849 25.07 18 64.5 19 -5.9 21.3
15:05 1020 30.12 849 25.07 17.3 63.1 20 -6 21.2
15:10 1020 30.12 849 25.07 18.1 64.6 18 -6.5 20.3
15:15 1020 30.12 849 25.07 18.7 65.6 18 -5.7 21.7
15:20 1020 30.12 849 25.07 19 66.3 14 -8.6 16.5
15:25 1020 30.12 849 25.07 19.7 67.4 15 -7.4 18.7
15:30 1020 30.12 849 25.07 20 68 15 -7.5 18.6
15:35 1019 30.09 849 25.07 20.1 68.2 14 -8.4 16.9
15:40 1019 30.09 849 25.07 20.5 68.9 15 -7.1 19.1
15:45 1019 30.09 849 25.07 19.3 66.8 15 -7.7 18.2
15:50 1019 30.09 849 25.07 19.3 66.7 15 -7.8 18
15:55 1019 30.09 848 25.04 19.6 67.2 15 -7.8 17.9
16:00 1019 30.09 848 25.04 20.2 68.4 13 -9.3 15.3
16:05 1019 30.09 848 25.04 21.1 69.9 11 -10.2 13.6
16:10 1019 30.09 848 25.04 21.2 70.1 11 -10 14
16:15 1019 30.09 848 25.04 21 69.7 11 -10.1 13.7
16:20 1019 30.09 848 25.04 20.9 69.7 11 -10.8 12.6
16:25 1019 30.09 848 25.04 20.8 69.4 11 -10.6 12.9
16:30 1019 30.09 848 25.04 21 69.8 11 -10 14
16:35 1019 30.09 848 25.04 21.1 70.1 11 -10.6 12.9
16:40 1019 30.09 848 25.04 21.1 70 10 -11.1 12.1
16:45 1019 30.09 848 25.04 20.9 69.6 11 -10.8 12.5
16:50 1019 30.09 848 25.04 20.8 69.5 11 -10.9 12.4
16:55 1019 30.09 848 25.04 21 69.7 11 -10.3 13.4
17:00 1019 30.09 848 25.04 21 69.8 12 -9.2 15.5
17:05 1019 30.09 848 25.04 21 69.7 11 -10.4 13.3
17:10 1019 30.09 848 25.04 21 69.7 11 -10.3 13.4
17:15 1019 30.09 848 25.04 21.3 70.3 11 -9.8 14.3
17:20 1019 30.09 848 25.04 21.4 70.4 11 -10 14
17:25 1019 30.09 848 25.04 21.1 69.9 11 -10.4 13.3
17:30 1019 30.09 848 25.04 21.1 69.9 11 -10.7 12.8
17:35 1019 30.09 848 25.04 20.8 69.4 13 -8.8 16.1
17:40 1019 30.09 848 25.04 20.5 68.8 15 -6.9 19.6
17:45 1019 30.09 848 25.04 20.4 68.8 13 -8.7 16.3
17:50 1019 30.09 848 25.04 20.2 68.3 18 -4.8 23.3
17:55 1019 30.09 848 25.04 20 68.1 15 -7 19.3
18:00 1019 30.09 848 25.04 19.8 67.6 16 -6.8 19.8
18:05 1019 30.09 848 25.04 20.4 68.7 16 -6.2 20.9
18:10 1019 30.09 848 25.04 20.3 68.5 15 -6.8 19.7
18:15 1019 30.09 848 25.04 19.7 67.5 17 -5.9 21.3
18:20 1019 30.09 848 25.04 19.3 66.8 17 -6.4 20.5
18:25 1019 30.09 848 25.04 19.1 66.5 18 -5.3 22.5
18:30 1019 30.09 848 25.04 19 66.2 17 -6.5 20.2
18:35 1019 30.09 848 25.04 18.8 65.9 17 -6.6 20.1
18:40 1019 30.09 848 25.04 18.7 65.6 17 -6.7 19.9
18:45 1019 30.09 848 25.04 18.6 65.4 18 -6.3 20.6
18:50 1019 30.09 848 25.04 18.4 65.1 16 -7.4 18.7
18:55 1019 30.09 848 25.04 18.3 64.9 18 -6.5 20.3
19:00 1019 30.09 848 25.04 18 64.3 18 -6.3 20.7
19:05 1019 30.09 848 25.04 17.8 64.1 18 -6.4 20.4
19:10 1019 30.09 848 25.04 17.7 63.8 19 -6.3 20.7
19:15 1019 30.09 848 25.04 17.7 63.8 20 -5.4 22.3
19:20 1019 30.09 848 25.04 17.6 63.6 20 -5.8 21.6
19:25 1019 30.09 848 25.04 17.5 63.5 21 -5.2 22.7
19:30 1019 30.09 848 25.04 17.4 63.3 19 -6.5 20.2
19:35 1019 30.09 848 25.04 17.2 63 18 -7.1 19.2
19:40 1019 30.09 848 25.04 17.2 63 19 -6.5 20.3
19:45 1019 30.09 848 25.04 17 62.7 19 -6.4 20.6
19:50 1019 30.09 848 25.04 16.9 62.3 24 -3.6 25.6
19:55 1019 30.09 848 25.04 16.7 62 23 -4.6 23.8
20:00 1019 30.09 848 25.04 16.2 61.2 28 -2 28.4
20:05 1019 30.09 848 25.04 15.2 59.4 33 -0.9 30.3
20:10 1019 30.09 848 25.04 14.4 58 32 -2.1 28.1
20:15 1019 30.09 848 25.04 14 57.1 32 -2.5 27.5
20:20 1019 30.09 848 25.04 13.6 56.4 32 -2.9 26.8
20:25 1019 30.09 848 25.04 13.1 55.7 34 -2.5 27.5
20:30 1019 30.09 849 25.07 12.7 54.9 33 -3.3 26.1
20:35 1019 30.09 849 25.07 12.6 54.6 33 -3 26.6
20:40 1019 30.09 849 25.07 12.1 53.8 35 -2.7 27.1
20:45 1019 30.09 849 25.07 11.7 53 37 -2.5 27.4
20:50 1019 30.09 849 25.07 11.4 52.5 36 -3 26.6
20:55 1020 30.12 849 25.07 11.2 52.2 37 -2.9 26.8
21:00 1019 30.09 849 25.07 11.3 52.3 35 -3.5 25.7
21:05 1019 30.09 849 25.07 11.6 52.8 33 -4 24.9
21:10 1020 30.12 849 25.07 11.8 53.3 33 -3.9 24.9
21:15 1020 30.12 849 25.07 11.8 53.2 33 -3.9 25
21:20 1020 30.12 849 25.07 11.3 52.4 35 -3.4 25.9
21:25 1020 30.12 849 25.07 10.6 51 37 -3.3 26
21:30 1020 30.12 849 25.07 10.2 50.3 34 -5.2 22.7
21:35 1020 30.12 849 25.07 10.5 50.8 33 -4.9 23.1
21:40 1020 30.12 849 25.07 10.2 50.3 34 -5 23
21:45 1020 30.12 849 25.07 10.2 50.3 35 -4.8 23.4
21:50 1020 30.12 849 25.07 10.2 50.3 32 -5.8 21.5
21:55 1020 30.12 849 25.07 10.2 50.4 36 -4.1 24.6
22:00 1020 30.12 849 25.07 9.7 49.5 34 -5.4 22.3
22:05 1020 30.12 849 25.07 9.9 49.9 32 -5.8 21.6
22:10 1020 30.12 849 25.07 10.4 50.7 32 -5.7 21.7
22:15 1020 30.12 849 25.07 10.2 50.4 32 -5.7 21.8
22:20 1020 30.12 849 25.07 10.2 50.4 33 -5.5 22.1
22:25 1020 30.12 849 25.07 10.1 50.2 33 -5.4 22.3
22:30 1020 30.12 849 25.07 9.9 49.8 33 -5.5 22.2
22:35 1020 30.12 849 25.07 9.8 49.7 33 -5.6 22
22:40 1020 30.12 849 25.07 9.8 49.7 33 -5.7 21.7
22:45 1020 30.12 849 25.07 9.9 49.9 32 -5.8 21.5
22:50 1020 30.12 849 25.07 9.9 49.8 32 -6 21.2
22:55 1020 30.12 849 25.07 9.6 49.3 34 -5.6 22
23:00 1020 30.12 849 25.07 9.3 48.8 34 -5.9 21.4
23:05 1020 30.12 849 25.07 9.3 48.7 33 -6.1 21
23:10 1020 30.12 849 25.07 9.5 49 32 -6.4 20.5
23:15 1020 30.12 849 25.07 9.6 49.4 31 -6.7 19.9
23:20 1020 30.12 849 25.07 10 50 30 -6.9 19.6
23:25 1020 30.12 849 25.07 10.3 50.5 29 -7 19.5
23:30 1020 30.12 849 25.07 10.3 50.6 29 -6.7 19.9
23:35 1020 30.12 849 25.07 10.2 50.4 29 -6.9 19.6
23:40 1020 30.12 849 25.07 10.1 50.3 29 -7 19.4
23:45 1020 30.12 849 25.07 10.1 50.1 29 -7.2 19.1
23:50 1020 30.12 849 25.07 10.1 50.2 30 -6.8 19.7
23:55 1020 30.12 849 25.07 9.8 49.6 31 -6.6 20.2
24:00 1020 30.12 849 25.07 9.4 48.9 31 -6.8 19.7